createdAt,value
2022-08-26T00:01:53.784Z,7.85
2022-08-26T00:04:22.581Z,8.77
2022-08-26T00:06:50.832Z,8.82
2022-08-26T00:09:18.773Z,8.43
2022-08-26T00:11:47.190Z,9.05
2022-08-26T00:14:16.196Z,7.85
2022-08-26T00:16:48.146Z,9.43
2022-08-26T00:19:17.196Z,8.23
2022-08-26T00:21:45.180Z,8.73
2022-08-26T00:24:12.867Z,9.05
2022-08-26T00:26:41.394Z,9.95
2022-08-26T00:29:09.504Z,8.70
2022-08-26T00:31:37.471Z,8.45
2022-08-26T00:34:07.100Z,8.55
2022-08-26T00:36:37.355Z,9.23
2022-08-26T00:39:07.136Z,9.30
2022-08-26T00:41:37.560Z,8.43
2022-08-26T00:44:05.427Z,8.40
2022-08-26T00:46:39.133Z,8.65
2022-08-26T00:49:18.216Z,8.52
2022-08-26T00:51:49.770Z,8.48
2022-08-26T00:56:52.073Z,7.60
2022-08-26T00:59:21.082Z,8.35
2022-08-26T01:01:49.019Z,9.18
2022-08-26T01:04:22.218Z,9.02
2022-08-26T01:06:53.288Z,8.63
2022-08-26T01:09:23.450Z,8.40
2022-08-26T01:11:55.727Z,9.63
2022-08-26T01:14:27.083Z,9.75
2022-08-26T01:19:29.287Z,8.77
2022-08-26T01:21:59.844Z,8.70
2022-08-26T01:24:30.341Z,9.40
2022-08-26T01:27:01.167Z,8.68
2022-08-26T01:29:31.110Z,8.63
2022-08-26T01:31:59.385Z,8.55
2022-08-26T01:34:30.181Z,9.25
2022-08-26T01:37:05.434Z,9.07
2022-08-26T01:39:36.367Z,8.90
2022-08-26T01:42:10.508Z,10.10
2022-08-26T01:44:50.340Z,9.20
2022-08-26T01:47:21.821Z,10.20
2022-08-26T01:49:53.673Z,9.02
2022-08-26T01:52:27.599Z,10.07
2022-08-26T01:54:59.510Z,9.07
2022-08-26T01:57:28.581Z,9.90
2022-08-26T02:00:01.488Z,9.65
2022-08-26T02:02:29.844Z,9.30
2022-08-26T02:05:00.400Z,10.23
2022-08-26T02:07:28.740Z,9.02
2022-08-26T02:09:57.944Z,9.70
2022-08-26T02:12:27.269Z,9.65
2022-08-26T02:15:00.330Z,8.55
2022-08-26T02:17:33.695Z,9.75
2022-08-26T02:20:03.922Z,10.02
2022-08-26T02:22:33.722Z,9.13
2022-08-26T02:25:12.225Z,9.32
2022-08-26T02:27:40.814Z,10.35
2022-08-26T02:30:12.973Z,9.05
2022-08-26T02:32:41.451Z,9.52
2022-08-26T02:35:12.862Z,10.23
2022-08-26T02:40:14.833Z,10.85
2022-08-26T02:42:42.592Z,10.18
2022-08-26T02:45:11.062Z,10.23
2022-08-26T02:47:39.255Z,11.13
2022-08-26T02:50:07.780Z,9.65
2022-08-26T02:52:35.890Z,10.32
2022-08-26T02:55:06.037Z,9.90
2022-08-26T02:57:35.434Z,10.48
2022-08-26T03:00:05.828Z,10.05
2022-08-26T03:02:33.768Z,11.65
2022-08-26T03:05:02.090Z,10.73
2022-08-26T03:07:30.623Z,10.38
2022-08-26T03:09:58.691Z,9.98
2022-08-26T03:12:26.560Z,10.30
2022-08-26T03:14:55.791Z,10.80
2022-08-26T03:17:23.468Z,10.40
2022-08-26T03:19:54.767Z,9.82
2022-08-26T03:22:26.073Z,11.55
2022-08-26T03:24:54.894Z,11.07
2022-08-26T03:27:22.510Z,10.52
2022-08-26T03:29:50.498Z,11.82
2022-08-26T03:32:19.949Z,9.98
2022-08-26T03:34:47.764Z,11.02
2022-08-26T03:37:15.652Z,11.35
2022-08-26T03:39:43.578Z,11.20
2022-08-26T03:42:11.226Z,11.15
2022-08-26T03:44:41.949Z,10.27
2022-08-26T03:47:10.293Z,10.93
2022-08-26T03:49:39.782Z,11.52
2022-08-26T03:52:07.678Z,10.95
2022-08-26T03:54:35.300Z,11.30
2022-08-26T03:57:03.207Z,11.25
2022-08-26T03:59:31.169Z,11.27
2022-08-26T04:01:58.963Z,11.65
2022-08-26T04:04:26.826Z,12.43
2022-08-26T04:06:59.582Z,11.73
2022-08-26T04:09:28.038Z,11.65
2022-08-26T04:11:57.504Z,11.85
2022-08-26T04:14:27.385Z,11.18
2022-08-26T04:16:57.254Z,11.63
2022-08-26T04:19:25.676Z,12.00
2022-08-26T04:21:54.494Z,11.30
2022-08-26T04:24:25.964Z,12.25
2022-08-26T04:26:56.267Z,14.65
2022-08-26T04:29:26.426Z,12.40
2022-08-26T04:31:55.970Z,11.38
2022-08-26T04:34:24.662Z,11.48
2022-08-26T04:36:55.126Z,12.68
2022-08-26T04:39:25.335Z,12.88
2022-08-26T04:41:55.463Z,11.65
2022-08-26T04:44:24.940Z,12.45
2022-08-26T04:46:53.180Z,11.75
2022-08-26T04:49:21.292Z,12.38
2022-08-26T04:51:49.072Z,12.30
2022-08-26T04:54:17.784Z,11.75
2022-08-26T04:56:48.212Z,11.93
2022-08-26T04:59:18.200Z,14.02
2022-08-26T05:01:48.557Z,13.18
2022-08-26T05:04:18.947Z,13.48
2022-08-26T05:06:48.093Z,13.10
2022-08-26T05:09:16.047Z,13.63
2022-08-26T05:11:44.071Z,14.18
2022-08-26T05:14:18.428Z,13.43
2022-08-26T05:16:47.983Z,11.50
2022-08-26T05:19:19.125Z,13.45
2022-08-26T05:21:47.886Z,12.57
2022-08-26T05:24:16.673Z,13.48
2022-08-26T05:26:44.851Z,12.25
2022-08-26T05:29:12.984Z,13.13
2022-08-26T05:31:42.145Z,13.48
2022-08-26T05:34:09.812Z,12.18
2022-08-26T05:36:37.838Z,13.68
2022-08-26T05:39:06.709Z,13.60
2022-08-26T05:41:38.367Z,13.50
2022-08-26T05:44:09.016Z,14.73
2022-08-26T05:46:37.902Z,13.23
2022-08-26T05:49:12.475Z,12.27
2022-08-26T05:51:41.001Z,13.13
2022-08-26T05:54:10.379Z,14.15
2022-08-26T05:56:38.980Z,14.48
2022-08-26T05:59:14.631Z,12.77
2022-08-26T06:01:43.340Z,12.80
2022-08-26T06:04:12.516Z,14.43
2022-08-26T06:06:41.640Z,15.88
2022-08-26T06:09:11.067Z,18.75
2022-08-26T06:11:40.368Z,21.75
2022-08-26T06:14:09.347Z,17.83
2022-08-26T06:16:41.422Z,18.50
2022-08-26T06:19:11.798Z,16.63
2022-08-26T06:21:45.194Z,15.20
2022-08-26T06:24:14.092Z,15.60
2022-08-26T06:26:50.525Z,15.40
2022-08-26T06:29:24.439Z,13.70
2022-08-26T06:31:53.535Z,16.33
2022-08-26T06:34:21.784Z,17.25
2022-08-26T06:36:50.885Z,16.48
2022-08-26T06:39:21.348Z,15.15
2022-08-26T06:41:49.286Z,16.00
2022-08-26T06:44:18.212Z,15.15
2022-08-26T06:46:50.182Z,14.50
2022-08-26T06:49:27.019Z,16.73
2022-08-26T06:51:57.155Z,14.00
2022-08-26T06:54:26.660Z,14.70
2022-08-26T06:56:54.487Z,16.27
2022-08-26T06:59:22.124Z,13.75
2022-08-26T07:01:50.071Z,14.52
2022-08-26T07:04:21.765Z,16.50
2022-08-26T07:06:52.748Z,17.13
2022-08-26T07:09:26.434Z,15.02
2022-08-26T07:11:54.638Z,14.48
2022-08-26T07:14:23.081Z,17.08
2022-08-26T07:16:51.778Z,15.10
2022-08-26T07:19:30.066Z,15.70
2022-08-26T07:22:00.167Z,14.90
2022-08-26T07:24:29.496Z,15.57
2022-08-26T07:26:59.776Z,14.52
2022-08-26T07:29:27.592Z,17.38
2022-08-26T07:31:56.303Z,16.15
2022-08-26T07:34:24.582Z,14.98
2022-08-26T07:36:53.831Z,16.77
2022-08-26T07:39:23.709Z,16.08
2022-08-26T07:41:53.534Z,16.38
2022-08-26T07:44:21.439Z,17.23
2022-08-26T07:46:52.380Z,16.38
2022-08-26T07:49:22.428Z,15.70
2022-08-26T07:51:51.224Z,15.75
2022-08-26T07:54:19.254Z,16.17
2022-08-26T07:56:48.823Z,15.93
2022-08-26T07:59:19.114Z,13.80
2022-08-26T08:01:47.673Z,13.18
2022-08-26T08:04:17.951Z,13.85
2022-08-26T08:06:48.871Z,13.93
2022-08-26T08:09:17.550Z,12.88
2022-08-26T08:11:45.249Z,13.80
2022-08-26T08:14:13.529Z,14.68
2022-08-26T08:16:46.116Z,14.55
2022-08-26T08:19:15.514Z,13.40
2022-08-26T08:21:43.785Z,12.68
2022-08-26T08:24:12.008Z,13.32
2022-08-26T08:26:40.071Z,13.50
2022-08-26T08:29:08.352Z,14.00
2022-08-26T08:34:28.837Z,13.02
2022-08-26T08:36:57.032Z,13.38
2022-08-26T08:39:25.763Z,12.75
2022-08-26T08:42:30.513Z,12.25
2022-08-26T08:45:02.768Z,14.52
2022-08-26T08:47:35.104Z,13.68
2022-08-26T08:50:12.104Z,13.30
2022-08-26T08:52:43.133Z,12.50
2022-08-26T08:55:17.415Z,15.15
2022-08-26T08:58:02.255Z,12.27
2022-08-26T09:00:39.686Z,14.10
2022-08-26T09:03:24.435Z,11.68
2022-08-26T09:05:53.987Z,14.48
2022-08-26T09:08:26.742Z,13.95
2022-08-26T09:10:57.204Z,11.50
2022-08-26T09:13:27.197Z,13.05
2022-08-26T09:16:03.926Z,14.18
2022-08-26T09:18:50.895Z,13.75
2022-08-26T09:21:21.771Z,14.50
2022-08-26T09:23:52.910Z,12.70
2022-08-26T09:26:25.968Z,13.38
2022-08-26T09:28:58.903Z,14.77
2022-08-26T09:31:29.029Z,13.68
2022-08-26T09:34:12.486Z,13.02
2022-08-26T09:36:49.016Z,13.88
2022-08-26T09:39:29.812Z,12.25
2022-08-26T09:42:10.328Z,13.48
2022-08-26T09:44:59.176Z,10.40
2022-08-26T09:47:31.654Z,13.10
2022-08-26T09:50:03.832Z,14.40
2022-08-26T09:52:33.459Z,13.23
2022-08-26T09:55:07.285Z,13.68
2022-08-26T09:57:44.492Z,12.15
2022-08-26T10:00:34.763Z,12.88
2022-08-26T10:03:10.356Z,11.77
2022-08-26T10:05:44.869Z,12.95
2022-08-26T10:08:27.582Z,10.65
2022-08-26T10:10:57.870Z,9.88
2022-08-26T10:13:33.697Z,14.25
2022-08-26T10:16:13.766Z,11.32
2022-08-26T10:18:46.891Z,12.50
2022-08-26T10:21:24.804Z,12.23
2022-08-26T10:23:57.661Z,11.52
2022-08-26T10:26:30.617Z,13.90
2022-08-26T10:29:08.039Z,13.75
2022-08-26T10:31:41.347Z,11.52
2022-08-26T10:34:10.130Z,12.23
2022-08-26T10:37:07.085Z,11.57
2022-08-26T10:39:41.938Z,11.57
2022-08-26T10:42:17.714Z,13.27
2022-08-26T10:44:50.289Z,12.48
2022-08-26T10:47:24.379Z,12.48
2022-08-26T10:49:57.521Z,10.55
2022-08-26T10:52:37.689Z,10.82
2022-08-26T10:55:15.700Z,12.75
2022-08-26T10:57:54.753Z,12.98
2022-08-26T11:00:29.059Z,12.88
2022-08-26T11:03:06.590Z,12.20
2022-08-26T11:08:32.624Z,11.00
2022-08-26T11:11:01.857Z,11.32
2022-08-26T11:14:01.422Z,11.00
2022-08-26T11:16:35.872Z,9.00
2022-08-26T11:19:13.029Z,11.18
2022-08-26T11:21:49.466Z,12.38
2022-08-26T11:24:57.858Z,12.95
2022-08-26T11:28:01.773Z,13.13
2022-08-26T11:30:39.207Z,9.88
2022-08-26T11:33:08.169Z,10.00
2022-08-26T11:35:54.197Z,11.48
2022-08-26T11:38:27.079Z,44.65
2022-08-26T11:41:08.472Z,11.73
2022-08-26T11:43:38.645Z,9.70
2022-08-26T11:46:10.684Z,11.05
2022-08-26T11:48:41.563Z,15.82
2022-08-26T11:51:11.772Z,12.35
2022-08-26T11:53:44.299Z,9.73
2022-08-26T11:56:22.282Z,11.32
2022-08-26T11:58:54.171Z,11.02
2022-08-26T12:01:29.054Z,10.25
2022-08-26T12:04:01.039Z,10.38
2022-08-26T12:06:34.048Z,9.75
2022-08-26T12:09:10.624Z,10.35
2022-08-26T12:11:39.857Z,11.10
2022-08-26T12:14:16.047Z,10.75
2022-08-26T12:16:45.172Z,11.27
2022-08-26T12:19:23.183Z,9.98
2022-08-26T12:21:58.718Z,11.02
2022-08-26T12:24:26.396Z,10.15
2022-08-26T12:27:11.784Z,9.63
2022-08-26T12:29:40.546Z,10.80
2022-08-26T12:32:13.492Z,12.05
2022-08-26T12:34:42.343Z,10.75
2022-08-26T12:37:12.044Z,10.07
2022-08-26T12:39:42.314Z,9.23
2022-08-26T12:42:23.716Z,10.48
2022-08-26T12:45:00.164Z,9.40
2022-08-26T12:47:42.935Z,10.82
2022-08-26T12:50:17.610Z,11.45
2022-08-26T12:52:54.305Z,9.68
2022-08-26T12:55:24.881Z,10.00
2022-08-26T12:58:11.699Z,9.57
2022-08-26T13:00:41.100Z,9.13
2022-08-26T13:03:47.428Z,9.88
2022-08-26T13:06:28.054Z,10.07
2022-08-26T13:08:58.540Z,9.65
2022-08-26T13:11:28.429Z,9.65
2022-08-26T13:13:59.563Z,10.47
2022-08-26T13:16:27.439Z,9.90
2022-08-26T13:18:57.936Z,8.70
2022-08-26T13:21:29.831Z,7.80
2022-08-26T13:24:08.153Z,8.73
2022-08-26T13:26:36.154Z,8.30
2022-08-26T13:29:08.353Z,8.40
2022-08-26T13:31:40.604Z,9.48
2022-08-26T13:34:08.607Z,10.07
2022-08-26T13:36:37.716Z,7.60
2022-08-26T13:39:06.565Z,8.00
2022-08-26T13:41:34.161Z,8.45
2022-08-26T13:44:02.398Z,6.88
2022-08-26T13:46:30.361Z,7.05
2022-08-26T13:48:58.326Z,6.60
2022-08-26T13:51:27.809Z,6.97
2022-08-26T13:53:57.496Z,6.18
2022-08-26T13:56:26.231Z,7.55
2022-08-26T13:58:53.879Z,6.82
2022-08-26T14:01:21.908Z,7.47
2022-08-26T14:03:50.015Z,8.50
2022-08-26T14:06:18.417Z,7.03
2022-08-26T14:08:46.596Z,7.72
2022-08-26T14:11:17.965Z,7.15
2022-08-26T14:13:45.671Z,8.70
2022-08-26T14:16:21.781Z,8.68
2022-08-26T14:18:50.863Z,7.43
2022-08-26T14:21:19.004Z,7.82
2022-08-26T14:23:46.870Z,7.03
2022-08-26T14:26:27.884Z,8.18
2022-08-26T14:28:59.084Z,6.97
2022-08-26T14:31:27.781Z,7.13
2022-08-26T14:33:57.577Z,7.65
2022-08-26T14:36:25.307Z,7.30
2022-08-26T14:38:53.462Z,8.50
2022-08-26T14:41:22.407Z,8.95
2022-08-26T14:43:54.519Z,8.13
2022-08-26T14:46:24.768Z,7.60
2022-08-26T14:48:52.410Z,7.50
2022-08-26T14:51:24.939Z,7.63
2022-08-26T14:53:52.929Z,8.23
2022-08-26T14:56:21.250Z,7.35
2022-08-26T14:58:49.140Z,8.77
2022-08-26T15:01:16.807Z,9.13
2022-08-26T15:03:46.088Z,8.35
2022-08-26T15:06:15.664Z,8.07
2022-08-26T15:08:43.443Z,8.32
2022-08-26T15:11:11.758Z,8.43
2022-08-26T15:13:39.588Z,8.85
2022-08-26T15:16:08.093Z,9.18
2022-08-26T15:18:36.077Z,8.20
2022-08-26T15:21:06.935Z,8.88
2022-08-26T15:23:35.489Z,8.65
2022-08-26T15:26:03.917Z,8.07
2022-08-26T15:28:32.379Z,7.88
2022-08-26T15:31:00.154Z,8.32
2022-08-26T15:33:27.868Z,7.47
2022-08-26T15:35:55.783Z,9.07
2022-08-26T15:38:24.874Z,8.52
2022-08-26T15:40:52.638Z,9.75
2022-08-26T15:43:28.641Z,9.68
2022-08-26T15:45:57.998Z,8.43
2022-08-26T15:48:26.052Z,9.70
2022-08-26T15:50:55.487Z,8.95
2022-08-26T15:53:24.950Z,9.77
2022-08-26T15:55:53.911Z,10.00
2022-08-26T15:58:21.785Z,9.02
2022-08-26T16:00:49.528Z,9.88
2022-08-26T16:03:17.731Z,9.65
2022-08-26T16:05:46.904Z,9.32
2022-08-26T16:08:15.282Z,9.70
2022-08-26T16:10:50.301Z,10.63
2022-08-26T16:13:20.091Z,11.05
2022-08-26T16:15:48.150Z,11.32
2022-08-26T16:18:16.615Z,9.77
2022-08-26T16:20:55.222Z,8.77
2022-08-26T16:23:37.651Z,9.07
2022-08-26T16:26:10.724Z,9.20
2022-08-26T16:28:38.999Z,8.95
2022-08-26T16:31:07.091Z,10.60
2022-08-26T16:33:34.886Z,9.82
2022-08-26T16:36:03.273Z,9.63
2022-08-26T16:38:31.953Z,9.50
2022-08-26T16:41:00.642Z,9.85
2022-08-26T16:43:29.669Z,10.20
2022-08-26T16:45:57.844Z,10.07
2022-08-26T16:48:25.746Z,8.57
2022-08-26T16:50:53.379Z,10.35
2022-08-26T16:53:21.324Z,8.57
2022-08-26T16:55:49.745Z,10.75
2022-08-26T16:58:18.429Z,9.05
2022-08-26T17:00:47.446Z,9.48
2022-08-26T17:03:15.266Z,9.55
2022-08-26T17:05:46.777Z,10.10
2022-08-26T17:08:27.499Z,10.38
2022-08-26T17:10:59.239Z,9.90
2022-08-26T17:13:35.923Z,9.40
2022-08-26T17:16:07.801Z,8.10
2022-08-26T17:18:37.307Z,9.45
2022-08-26T17:21:07.526Z,8.35
2022-08-26T17:23:35.412Z,10.87
2022-08-26T17:26:03.773Z,8.15
2022-08-26T17:28:31.396Z,8.07
2022-08-26T17:30:59.882Z,8.30
2022-08-26T17:33:29.789Z,8.23
2022-08-26T17:35:57.630Z,9.18
2022-08-26T17:38:26.103Z,8.02
2022-08-26T17:40:54.243Z,8.07
2022-08-26T17:43:22.256Z,8.15
2022-08-26T17:45:50.240Z,8.63
2022-08-26T17:48:17.942Z,7.82
2022-08-26T17:50:49.591Z,9.20
2022-08-26T17:53:19.018Z,7.97
2022-08-26T17:55:47.037Z,8.65
2022-08-26T17:58:15.247Z,9.52
2022-08-26T18:00:45.150Z,7.50
2022-08-26T18:03:13.184Z,8.05
2022-08-26T18:05:42.336Z,8.65
2022-08-26T18:08:11.513Z,8.13
2022-08-26T18:13:09.027Z,7.80
2022-08-26T18:15:40.370Z,7.22
2022-08-26T18:18:08.345Z,7.65
2022-08-26T18:20:38.334Z,8.75
2022-08-26T18:23:06.510Z,8.13
2022-08-26T18:25:39.258Z,7.32
2022-08-26T18:28:07.026Z,6.90
2022-08-26T18:30:35.213Z,7.82
2022-08-26T18:33:03.242Z,7.50
2022-08-26T18:35:31.160Z,6.72
2022-08-26T18:38:10.670Z,8.25
2022-08-26T18:40:42.522Z,10.27
2022-08-26T18:43:10.280Z,8.07
2022-08-26T18:45:38.170Z,7.22
2022-08-26T18:48:09.837Z,8.07
2022-08-26T18:50:39.148Z,8.10
2022-08-26T18:53:06.912Z,7.47
2022-08-26T18:55:35.227Z,8.48
2022-08-26T18:58:04.257Z,7.05
2022-08-26T19:00:33.608Z,8.10
2022-08-26T19:03:02.111Z,7.68
2022-08-26T19:05:30.099Z,7.40
2022-08-26T19:07:57.739Z,7.55
2022-08-26T19:10:25.408Z,8.60
2022-08-26T19:12:56.332Z,8.73
2022-08-26T19:15:28.205Z,6.88
2022-08-26T19:17:56.135Z,7.97
2022-08-26T19:20:23.826Z,7.43
2022-08-26T19:22:51.764Z,8.27
2022-08-26T19:25:19.624Z,7.38
2022-08-26T19:27:47.710Z,8.30
2022-08-26T19:30:15.840Z,7.85
2022-08-26T19:32:46.488Z,7.35
2022-08-26T19:35:14.309Z,8.70
2022-08-26T19:37:42.101Z,8.98
2022-08-26T19:40:10.549Z,9.23
2022-08-26T19:42:38.251Z,10.38
2022-08-26T19:45:07.251Z,8.90
2022-08-26T19:47:39.859Z,8.40
2022-08-26T19:50:12.034Z,8.60
2022-08-26T19:55:09.409Z,8.50
2022-08-26T19:57:37.931Z,10.05
2022-08-26T20:00:09.185Z,12.13
2022-08-26T20:02:39.804Z,11.35
2022-08-26T20:05:11.488Z,11.38
2022-08-26T20:07:41.142Z,10.50
2022-08-26T20:10:11.980Z,10.70
2022-08-26T20:12:40.777Z,10.77
2022-08-26T20:15:09.571Z,10.57
2022-08-26T20:17:40.163Z,8.90
2022-08-26T20:20:26.929Z,8.07
2022-08-26T20:22:59.110Z,7.55
2022-08-26T20:25:26.894Z,7.60
2022-08-26T20:27:54.492Z,7.75
2022-08-26T20:30:22.494Z,9.57
2022-08-26T20:32:50.846Z,9.25
2022-08-26T20:35:20.255Z,9.00
2022-08-26T20:37:48.026Z,8.90
2022-08-26T20:40:15.799Z,7.25
2022-08-26T20:42:43.494Z,6.82
2022-08-26T20:45:11.418Z,7.57
2022-08-26T20:47:39.547Z,7.60
2022-08-26T20:50:07.936Z,7.95
2022-08-26T20:52:37.263Z,7.85
2022-08-26T20:55:05.961Z,7.28
2022-08-26T20:57:33.761Z,8.52
2022-08-26T21:00:01.461Z,7.25
2022-08-26T21:02:30.430Z,7.20
2022-08-26T21:04:58.203Z,6.55
2022-08-26T21:07:26.216Z,7.32
2022-08-26T21:09:55.849Z,8.50
2022-08-26T21:12:23.717Z,7.57
2022-08-26T21:14:51.369Z,7.45
2022-08-26T21:17:19.126Z,8.55
2022-08-26T21:19:46.823Z,7.15
2022-08-26T21:22:14.458Z,7.13
2022-08-26T21:24:42.623Z,6.68
2022-08-26T21:27:11.807Z,6.70
2022-08-26T21:29:39.530Z,6.68
2022-08-26T21:32:07.551Z,7.28
2022-08-26T21:34:36.143Z,6.63
2022-08-26T21:37:06.016Z,6.47
2022-08-26T21:39:41.077Z,6.30
2022-08-26T21:42:08.836Z,6.45
2022-08-26T21:44:37.926Z,8.05
2022-08-26T21:47:06.146Z,6.80
2022-08-26T21:49:33.778Z,7.00
2022-08-26T21:52:01.494Z,6.75
2022-08-26T21:54:29.564Z,5.38
2022-08-26T21:56:57.735Z,6.00
2022-08-26T21:59:25.398Z,6.90
2022-08-26T22:01:55.003Z,6.82
2022-08-26T22:04:23.399Z,5.40
2022-08-26T22:06:53.398Z,5.60
2022-08-26T22:09:24.833Z,5.55
2022-08-26T22:11:53.769Z,6.00
2022-08-26T22:14:21.661Z,6.22
2022-08-26T22:16:50.629Z,6.70
2022-08-26T22:19:23.428Z,7.88
2022-08-26T22:21:53.369Z,6.88
2022-08-26T22:24:23.218Z,7.40
2022-08-26T22:26:51.166Z,7.78
2022-08-26T22:29:19.276Z,7.78
2022-08-26T22:31:47.027Z,7.72
2022-08-26T22:34:16.185Z,7.07
2022-08-26T22:36:47.987Z,7.72
2022-08-26T22:39:17.750Z,8.93
2022-08-26T22:41:46.147Z,8.15
2022-08-26T22:44:15.189Z,8.10
2022-08-26T22:46:43.954Z,6.88
2022-08-26T22:49:13.981Z,7.40
2022-08-26T22:51:41.947Z,7.22
2022-08-26T22:54:11.774Z,7.30
2022-08-26T22:56:40.093Z,7.50
2022-08-26T22:59:08.343Z,8.30
2022-08-26T23:01:37.168Z,8.15
2022-08-26T23:04:06.567Z,6.90
2022-08-26T23:06:36.318Z,6.55
2022-08-26T23:09:05.697Z,7.50
2022-08-26T23:11:35.383Z,7.38
2022-08-26T23:14:06.371Z,7.30
2022-08-26T23:16:37.849Z,7.18
2022-08-26T23:19:08.410Z,6.32
2022-08-26T23:21:36.165Z,7.13
2022-08-26T23:24:04.506Z,7.00
2022-08-26T23:26:32.361Z,6.55
2022-08-26T23:29:01.429Z,6.38
2022-08-26T23:31:29.272Z,6.45
2022-08-26T23:33:57.177Z,6.65
2022-08-26T23:36:26.080Z,6.05
2022-08-26T23:38:54.128Z,6.07
2022-08-26T23:41:22.409Z,5.82
2022-08-26T23:43:50.653Z,6.28
2022-08-26T23:46:20.266Z,5.78
2022-08-26T23:48:48.183Z,6.38
2022-08-26T23:51:16.175Z,6.65
2022-08-26T23:53:43.812Z,6.25
2022-08-26T23:56:14.302Z,6.25
2022-08-26T23:58:42.275Z,7.32
